武漢 の空港の天気 - METARとTAF

武漢天河国際空港 ( ZHHH / WUH ) - 中国 湖北省武漢市
飛行場実況気象(Metar)
観測時間10/21 00:00 CST (10/20 16:00 UTC)
風向・風速静穏 0m/s
視程10km以上
天気現象
なし
気温18℃
湿度88%
気圧1017hPa
METARZHHH 201600Z 00000MPS CAVOK 18/16 Q1017 NOSIG
過去の天気等 Google飛行場航空写真 Wunderground天気予報

過去48時間のMETAR

飛行場予報(TAF)
発表時間: 10/20 16:18 CST (10/20 08:18 UTC)
予報対象時間: 20日20時 CST ~ 21日20時 CST
風向・風速北北東 3m/s
視程6000m
なし
TAF ZHHH 200818Z 2012/2112 02003MPS 6000 NSC TX26/2107Z TN16/2022Z